createdAt,value
2022-11-07T00:00:28.536Z,81.46
2022-11-07T00:02:59.613Z,81.25
2022-11-07T00:05:30.242Z,81.06
2022-11-07T00:08:00.632Z,81.28
2022-11-07T00:10:30.940Z,81.33
2022-11-07T00:13:01.245Z,81.52
2022-11-07T00:15:31.602Z,81.84
2022-11-07T00:18:02.001Z,82.28
2022-11-07T00:20:33.343Z,82.18
2022-11-07T00:23:03.653Z,82.83
2022-11-07T00:25:34.039Z,83.43
2022-11-07T00:28:04.416Z,84.48
2022-11-07T00:30:34.781Z,84.67
2022-11-07T00:33:05.396Z,84.71
2022-11-07T00:35:35.783Z,84.68
2022-11-07T00:38:06.222Z,84.49
2022-11-07T00:40:36.621Z,84.57
2022-11-07T00:43:07.012Z,84.38
2022-11-07T00:45:37.500Z,84.39
2022-11-07T00:48:07.968Z,84.04
2022-11-07T00:50:38.361Z,84.27
2022-11-07T00:53:08.793Z,84.24
2022-11-07T00:55:39.174Z,84.24
2022-11-07T00:58:13.863Z,84.19
2022-11-07T01:00:42.594Z,83.80
2022-11-07T01:03:30.871Z,83.46
2022-11-07T01:06:03.796Z,83.23
2022-11-07T01:08:34.270Z,83.08
2022-11-07T01:11:07.823Z,82.96
2022-11-07T01:13:38.644Z,82.86
2022-11-07T01:16:12.477Z,82.86
2022-11-07T01:18:43.024Z,82.60
2022-11-07T01:21:16.468Z,82.64
2022-11-07T01:23:45.764Z,82.45
2022-11-07T01:26:17.308Z,82.10
2022-11-07T01:28:47.854Z,82.33
2022-11-07T01:31:19.312Z,82.25
2022-11-07T01:33:49.738Z,82.01
2022-11-07T01:36:20.481Z,82.01
2022-11-07T01:38:51.020Z,81.69
2022-11-07T01:41:25.619Z,82.07
2022-11-07T01:44:10.557Z,81.68
2022-11-07T01:46:47.913Z,81.92
2022-11-07T01:49:21.791Z,82.20
2022-11-07T01:51:57.825Z,82.16
2022-11-07T01:54:31.296Z,81.98
2022-11-07T01:57:04.751Z,82.20
2022-11-07T01:59:35.886Z,82.21
2022-11-07T02:02:06.623Z,82.03
2022-11-07T02:04:38.139Z,81.88
2022-11-07T02:07:24.004Z,81.90
2022-11-07T02:09:55.263Z,81.79
2022-11-07T02:12:27.287Z,82.00
2022-11-07T02:14:58.150Z,81.91
2022-11-07T02:17:28.812Z,82.09
2022-11-07T02:19:59.190Z,81.98
2022-11-07T02:22:41.747Z,82.00
2022-11-07T02:25:15.146Z,81.89
2022-11-07T02:27:48.820Z,81.77
2022-11-07T02:30:27.833Z,81.82
2022-11-07T02:32:58.199Z,81.74
2022-11-07T02:35:37.950Z,81.85
2022-11-07T02:38:31.117Z,81.67
2022-11-07T02:41:04.603Z,81.36
2022-11-07T02:43:38.008Z,81.49
2022-11-07T02:46:10.936Z,81.27
2022-11-07T02:48:50.066Z,81.28
2022-11-07T02:51:20.628Z,80.93
2022-11-07T02:53:51.598Z,81.25
2022-11-07T02:56:23.239Z,81.12
2022-11-07T02:58:53.602Z,80.98
2022-11-07T03:01:25.265Z,81.02
2022-11-07T03:03:55.794Z,80.84
2022-11-07T03:06:27.134Z,80.53
2022-11-07T03:08:57.517Z,80.69
2022-11-07T03:11:27.932Z,80.49
2022-11-07T03:13:58.323Z,80.39
2022-11-07T03:16:28.715Z,80.26
2022-11-07T03:18:59.167Z,80.45
2022-11-07T03:21:29.599Z,80.21
2022-11-07T03:24:00.109Z,80.21
2022-11-07T03:26:30.520Z,80.03
2022-11-07T03:29:00.870Z,79.85
2022-11-07T03:31:31.295Z,79.69
2022-11-07T03:34:01.658Z,79.33
2022-11-07T03:36:32.212Z,79.28
2022-11-07T03:39:02.643Z,79.47
2022-11-07T03:41:33.048Z,79.35
2022-11-07T03:44:03.543Z,79.24
2022-11-07T03:46:34.095Z,79.57
2022-11-07T03:49:04.508Z,79.07
2022-11-07T03:51:34.867Z,79.15
2022-11-07T03:54:05.244Z,78.83
2022-11-07T03:56:35.588Z,79.29
2022-11-07T03:59:05.936Z,79.09
2022-11-07T04:01:36.461Z,79.03
2022-11-07T04:04:06.933Z,79.19
2022-11-07T04:06:37.307Z,79.28
2022-11-07T04:09:08.342Z,79.10
2022-11-07T04:11:56.524Z,79.13
2022-11-07T04:14:44.961Z,79.20
2022-11-07T04:17:21.123Z,79.39
2022-11-07T04:19:55.320Z,79.41
2022-11-07T04:22:26.730Z,79.35
2022-11-07T04:24:57.330Z,79.10
2022-11-07T04:27:42.741Z,79.34
2022-11-07T04:30:29.908Z,79.48
2022-11-07T04:33:02.199Z,79.20
2022-11-07T04:35:34.290Z,79.06
2022-11-07T04:38:04.602Z,79.07
2022-11-07T04:40:35.053Z,78.96
2022-11-07T04:43:07.165Z,78.66
2022-11-07T04:45:39.005Z,78.53
2022-11-07T04:48:11.191Z,78.89
2022-11-07T04:50:42.016Z,78.73
2022-11-07T04:53:15.620Z,78.95
2022-11-07T04:55:46.735Z,78.69
2022-11-07T04:58:17.103Z,78.24
2022-11-07T05:00:47.485Z,78.68
2022-11-07T05:03:18.318Z,78.28
2022-11-07T05:05:48.990Z,78.41
2022-11-07T05:08:19.362Z,78.73
2022-11-07T05:10:49.712Z,78.58
2022-11-07T05:13:20.100Z,78.51
2022-11-07T05:15:51.469Z,78.80
2022-11-07T05:18:23.582Z,78.43
2022-11-07T05:20:53.909Z,78.24
2022-11-07T05:23:25.163Z,78.04
2022-11-07T05:25:56.686Z,78.21
2022-11-07T05:28:37.000Z,77.87
2022-11-07T05:31:03.497Z,78.13
2022-11-07T05:33:34.666Z,78.11
2022-11-07T05:36:16.162Z,78.30
2022-11-07T05:38:49.123Z,78.09
2022-11-07T05:41:21.454Z,78.21
2022-11-07T05:43:51.804Z,78.31
2022-11-07T05:46:22.211Z,78.28
2022-11-07T05:48:55.489Z,78.32
2022-11-07T05:51:24.645Z,78.11
2022-11-07T05:53:54.987Z,78.04
2022-11-07T05:56:25.374Z,77.64
2022-11-07T05:58:55.839Z,77.92
2022-11-07T06:01:26.252Z,78.14
2022-11-07T06:03:57.069Z,78.07
2022-11-07T06:06:27.498Z,78.11
2022-11-07T06:08:58.084Z,78.27
2022-11-07T06:11:28.803Z,77.87
2022-11-07T06:13:59.418Z,78.17
2022-11-07T06:16:29.772Z,77.99
2022-11-07T06:19:00.153Z,77.92
2022-11-07T06:21:31.284Z,77.72
2022-11-07T06:24:01.656Z,78.06
2022-11-07T06:26:32.095Z,77.79
2022-11-07T06:29:02.457Z,77.65
2022-11-07T06:31:32.886Z,77.82
2022-11-07T06:34:03.283Z,77.64
2022-11-07T06:36:33.801Z,77.82
2022-11-07T06:39:04.164Z,77.43
2022-11-07T06:41:34.538Z,77.45
2022-11-07T06:44:05.170Z,77.47
2022-11-07T06:46:35.957Z,77.60
2022-11-07T06:49:06.536Z,77.87
2022-11-07T06:51:36.885Z,77.55
2022-11-07T06:54:07.204Z,77.39
2022-11-07T06:56:37.617Z,77.49
2022-11-07T06:59:07.981Z,77.56
2022-11-07T07:01:38.522Z,77.36
2022-11-07T07:04:11.621Z,77.32
2022-11-07T07:06:42.245Z,77.17
2022-11-07T07:09:13.460Z,77.09
2022-11-07T07:11:45.118Z,77.23
2022-11-07T07:14:15.679Z,77.31
2022-11-07T07:16:46.054Z,77.32
2022-11-07T07:19:16.600Z,77.04
2022-11-07T07:21:46.978Z,76.88
2022-11-07T07:24:17.330Z,77.18
2022-11-07T07:26:47.753Z,76.80
2022-11-07T07:29:18.140Z,77.25
2022-11-07T07:31:48.643Z,77.05
2022-11-07T07:34:19.065Z,77.17
2022-11-07T07:36:49.525Z,76.65
2022-11-07T07:39:19.926Z,76.85
2022-11-07T07:41:50.792Z,76.50
2022-11-07T07:44:21.197Z,76.80
2022-11-07T07:46:51.609Z,76.48
2022-11-07T07:49:22.028Z,76.58
2022-11-07T07:51:52.489Z,76.49
2022-11-07T07:54:22.887Z,76.06
2022-11-07T07:56:53.262Z,76.23
2022-11-07T07:59:23.745Z,76.77
2022-11-07T08:01:57.050Z,76.71
2022-11-07T08:04:26.302Z,77.08
2022-11-07T08:06:56.813Z,76.99
2022-11-07T08:09:28.602Z,77.07
2022-11-07T08:11:59.041Z,76.71
2022-11-07T08:14:29.451Z,76.84
2022-11-07T08:17:00.173Z,76.94
2022-11-07T08:19:30.566Z,76.91
2022-11-07T08:22:00.978Z,76.77
2022-11-07T08:24:31.459Z,76.71
2022-11-07T08:27:01.831Z,76.34
2022-11-07T08:29:32.229Z,76.28
2022-11-07T08:32:02.620Z,75.95
2022-11-07T08:34:32.997Z,75.96
2022-11-07T08:37:03.371Z,76.05
2022-11-07T08:39:33.880Z,75.86
2022-11-07T08:42:04.240Z,75.30
2022-11-07T08:44:36.630Z,74.45
2022-11-07T08:47:08.735Z,74.22
2022-11-07T08:49:41.087Z,74.12
2022-11-07T08:52:11.542Z,74.03
2022-11-07T08:54:41.992Z,73.55
2022-11-07T08:57:12.526Z,73.73
2022-11-07T08:59:42.949Z,73.77
2022-11-07T09:04:45.999Z,73.50
2022-11-07T09:07:16.486Z,73.56
2022-11-07T09:09:46.929Z,72.76
2022-11-07T09:12:17.310Z,73.21
2022-11-07T09:14:49.298Z,72.75
2022-11-07T09:17:19.636Z,73.16
2022-11-07T09:19:49.988Z,73.17
2022-11-07T09:22:20.382Z,73.02
2022-11-07T09:24:50.768Z,72.43
2022-11-07T09:27:21.132Z,72.17
2022-11-07T09:29:51.695Z,70.38
2022-11-07T09:32:43.388Z,68.86
2022-11-07T09:34:59.297Z,69.20
2022-11-07T09:37:26.494Z,69.20
2022-11-07T09:39:57.020Z,69.90
2022-11-07T09:42:33.252Z,69.90
2022-11-07T09:45:03.998Z,70.11
2022-11-07T09:47:40.503Z,69.98
2022-11-07T09:50:14.032Z,69.50
2022-11-07T09:52:53.154Z,69.13
2022-11-07T09:55:41.663Z,63.38
2022-11-07T09:58:17.871Z,62.51
2022-11-07T10:00:48.231Z,64.56
2022-11-07T10:03:19.035Z,60.79
2022-11-07T10:06:01.690Z,61.00
2022-11-07T10:08:52.733Z,63.56
2022-11-07T10:11:50.318Z,53.28
2022-11-07T10:14:38.808Z,52.09
2022-11-07T10:17:34.727Z,51.64
2022-11-07T10:20:10.853Z,57.14
2022-11-07T10:23:05.319Z,57.16
2022-11-07T10:25:41.511Z,55.69
2022-11-07T10:28:17.990Z,60.47
2022-11-07T10:30:53.542Z,61.35
2022-11-07T10:33:49.008Z,57.86
2022-11-07T10:36:28.366Z,60.42
2022-11-07T10:39:00.963Z,62.31
2022-11-07T10:41:34.141Z,63.00
2022-11-07T10:44:08.887Z,63.67
2022-11-07T10:46:50.124Z,63.14
2022-11-07T10:49:25.323Z,64.10
2022-11-07T10:51:57.882Z,64.59
2022-11-07T10:54:30.748Z,64.84
2022-11-07T10:57:13.161Z,65.28
2022-11-07T10:59:55.127Z,64.40
2022-11-07T11:02:31.291Z,63.83
2022-11-07T11:05:03.768Z,64.01
2022-11-07T11:07:37.265Z,64.52
2022-11-07T11:10:26.030Z,64.70
2022-11-07T11:12:56.662Z,63.89
2022-11-07T11:15:34.357Z,64.16
2022-11-07T11:18:03.423Z,62.55
2022-11-07T11:20:42.844Z,60.44
2022-11-07T11:23:22.222Z,61.14
2022-11-07T11:25:55.513Z,58.36
2022-11-07T11:28:29.124Z,56.55
2022-11-07T11:31:02.598Z,59.47
2022-11-07T11:33:44.244Z,60.60
2022-11-07T11:36:20.846Z,61.53
2022-11-07T11:38:54.646Z,60.54
2022-11-07T11:41:52.276Z,60.21
2022-11-07T11:44:28.397Z,60.06
2022-11-07T11:47:01.862Z,60.50
2022-11-07T11:49:35.308Z,62.09
2022-11-07T11:52:17.704Z,61.28
2022-11-07T11:54:51.116Z,62.20
2022-11-07T11:57:39.488Z,62.73
2022-11-07T12:00:20.231Z,62.70
2022-11-07T12:03:17.789Z,62.60
2022-11-07T12:06:06.485Z,62.22
2022-11-07T12:08:52.277Z,62.30
2022-11-07T12:11:43.296Z,61.34
2022-11-07T12:14:33.109Z,61.75
2022-11-07T12:17:21.436Z,62.08
2022-11-07T12:20:00.739Z,62.54
2022-11-07T12:22:34.107Z,61.31
2022-11-07T12:25:21.781Z,60.67
2022-11-07T12:28:00.955Z,60.11
2022-11-07T12:30:34.430Z,60.02
2022-11-07T12:33:24.549Z,59.07
2022-11-07T12:36:13.067Z,58.94
2022-11-07T12:38:52.332Z,58.58
2022-11-07T12:41:31.598Z,59.31
2022-11-07T12:44:10.974Z,58.45
2022-11-07T12:46:53.888Z,58.42
2022-11-07T12:49:27.396Z,58.95
2022-11-07T12:52:03.767Z,60.58
2022-11-07T12:54:49.334Z,61.50
2022-11-07T12:57:22.819Z,62.65
2022-11-07T12:59:56.396Z,63.31
2022-11-07T13:02:35.746Z,63.83
2022-11-07T13:05:25.658Z,63.60
2022-11-07T13:08:01.837Z,64.11
2022-11-07T13:10:38.017Z,64.38
2022-11-07T13:13:14.326Z,64.85
2022-11-07T13:16:14.145Z,65.04
2022-11-07T13:18:27.993Z,65.61
2022-11-07T13:21:07.321Z,65.37
2022-11-07T13:23:41.485Z,66.05
2022-11-07T13:26:44.594Z,66.12
2022-11-07T13:28:46.733Z,66.14
2022-11-07T13:31:38.508Z,66.03
2022-11-07T13:34:24.165Z,66.45
2022-11-07T13:36:57.645Z,66.59
2022-11-07T13:39:30.581Z,66.79
2022-11-07T13:42:01.429Z,67.24
2022-11-07T13:44:34.917Z,67.30
2022-11-07T13:47:08.595Z,67.27
2022-11-07T13:49:45.176Z,67.73
2022-11-07T13:52:27.651Z,67.86
2022-11-07T13:55:16.341Z,68.01
2022-11-07T13:57:55.829Z,68.19
2022-11-07T14:00:26.451Z,68.66
2022-11-07T14:02:59.695Z,68.48
2022-11-07T14:05:36.592Z,68.26
2022-11-07T14:08:15.325Z,69.18
2022-11-07T14:10:48.720Z,69.11
2022-11-07T14:13:27.920Z,68.88
2022-11-07T14:16:01.705Z,68.94
2022-11-07T14:18:43.959Z,69.24
2022-11-07T14:21:23.082Z,69.35
2022-11-07T14:23:53.456Z,69.48
2022-11-07T14:26:28.206Z,69.58
2022-11-07T14:29:00.596Z,69.52
2022-11-07T14:31:38.754Z,69.84
2022-11-07T14:34:17.841Z,69.92
2022-11-07T14:36:54.879Z,69.77
2022-11-07T14:39:27.477Z,70.37
2022-11-07T14:41:59.798Z,70.05
2022-11-07T14:47:08.441Z,70.65
2022-11-07T14:49:44.802Z,70.99
2022-11-07T14:52:18.310Z,70.97
2022-11-07T14:54:51.105Z,71.42
2022-11-07T14:57:22.117Z,71.39
2022-11-07T14:59:52.682Z,71.33
2022-11-07T15:02:28.977Z,71.55
2022-11-07T15:05:06.691Z,71.50
2022-11-07T15:07:35.959Z,71.61
2022-11-07T15:10:17.356Z,71.76
2022-11-07T15:12:56.290Z,71.47
2022-11-07T15:15:32.171Z,71.50
2022-11-07T15:18:05.428Z,71.38
2022-11-07T15:20:39.669Z,71.71
2022-11-07T15:23:21.889Z,71.67
2022-11-07T15:26:01.153Z,71.36
2022-11-07T15:28:33.980Z,71.69
2022-11-07T15:31:05.147Z,71.19
2022-11-07T15:33:35.728Z,71.30
2022-11-07T15:36:06.604Z,71.92
2022-11-07T15:38:37.056Z,72.14
2022-11-07T15:41:07.461Z,72.19
2022-11-07T15:43:38.041Z,72.41
2022-11-07T15:46:17.653Z,72.50
2022-11-07T15:48:48.199Z,72.45
2022-11-07T15:51:18.717Z,72.39
2022-11-07T15:53:49.120Z,72.45
2022-11-07T15:56:22.594Z,72.14
2022-11-07T15:58:54.514Z,72.35
2022-11-07T16:01:25.114Z,72.62
2022-11-07T16:03:55.555Z,72.72
2022-11-07T16:06:31.059Z,72.45
2022-11-07T16:09:01.599Z,72.68
2022-11-07T16:11:32.029Z,72.06
2022-11-07T16:14:35.128Z,72.37
2022-11-07T16:16:35.855Z,72.76
2022-11-07T16:19:06.802Z,72.81
2022-11-07T16:21:37.213Z,72.73
2022-11-07T16:24:07.822Z,73.02
2022-11-07T16:26:39.754Z,73.04
2022-11-07T16:29:11.981Z,73.21
2022-11-07T16:31:43.047Z,73.57
2022-11-07T16:34:13.956Z,73.95
2022-11-07T16:36:44.276Z,73.92
2022-11-07T16:39:23.081Z,74.22
2022-11-07T16:41:53.433Z,74.70
2022-11-07T16:44:26.349Z,74.80
2022-11-07T16:46:56.995Z,74.60
2022-11-07T16:49:33.932Z,74.99
2022-11-07T16:52:04.972Z,75.19
2022-11-07T16:54:35.368Z,75.06
2022-11-07T16:57:05.741Z,75.51
2022-11-07T16:59:36.132Z,75.78
2022-11-07T17:02:21.042Z,75.53
2022-11-07T17:04:51.940Z,76.03
2022-11-07T17:07:24.105Z,76.19
2022-11-07T17:09:54.510Z,75.98
2022-11-07T17:12:25.091Z,75.98
2022-11-07T17:14:55.892Z,75.91
2022-11-07T17:17:26.274Z,75.81
2022-11-07T17:19:56.673Z,75.64
2022-11-07T17:22:27.164Z,75.67
2022-11-07T17:24:57.543Z,75.49
2022-11-07T17:27:28.803Z,76.12
2022-11-07T17:30:00.417Z,76.13
2022-11-07T17:32:31.259Z,76.00
2022-11-07T17:35:29.987Z,76.01
2022-11-07T17:37:33.649Z,76.32
2022-11-07T17:40:04.419Z,76.62
2022-11-07T17:42:38.043Z,76.23
2022-11-07T17:45:07.905Z,76.04
2022-11-07T17:47:38.209Z,75.76
2022-11-07T17:50:10.079Z,75.37
2022-11-07T17:52:40.451Z,75.53
2022-11-07T17:55:11.009Z,75.48
2022-11-07T17:57:43.281Z,75.31
2022-11-07T18:00:19.844Z,75.22
2022-11-07T18:02:52.628Z,75.25
2022-11-07T18:05:30.144Z,75.28
2022-11-07T18:07:57.674Z,75.04
2022-11-07T18:10:29.389Z,75.36
2022-11-07T18:12:59.786Z,74.87
2022-11-07T18:15:30.191Z,74.89
2022-11-07T18:18:00.568Z,74.81
2022-11-07T18:20:31.240Z,74.62
2022-11-07T18:23:01.903Z,74.79
2022-11-07T18:25:32.318Z,74.74
2022-11-07T18:28:02.785Z,74.59
2022-11-07T18:30:33.720Z,74.97
2022-11-07T18:33:04.101Z,75.07
2022-11-07T18:35:34.545Z,75.11
2022-11-07T18:38:04.943Z,74.83
2022-11-07T18:40:35.418Z,75.07
2022-11-07T18:43:05.819Z,75.15
2022-11-07T18:45:37.312Z,75.17
2022-11-07T18:48:07.703Z,75.41
2022-11-07T18:50:40.057Z,75.28
2022-11-07T18:53:10.722Z,75.58
2022-11-07T18:55:41.448Z,75.54
2022-11-07T18:58:11.852Z,75.84
2022-11-07T19:00:43.912Z,75.99
2022-11-07T19:03:14.447Z,76.09
2022-11-07T19:05:45.009Z,76.07
2022-11-07T19:08:15.733Z,76.24
2022-11-07T19:10:46.507Z,76.00
2022-11-07T19:13:16.852Z,76.07
2022-11-07T19:15:49.671Z,75.85
2022-11-07T19:18:21.024Z,76.21
2022-11-07T19:20:55.581Z,76.41
2022-11-07T19:23:25.965Z,76.54
2022-11-07T19:25:56.752Z,76.61
2022-11-07T19:28:27.165Z,76.75
2022-11-07T19:30:57.874Z,76.63
2022-11-07T19:33:28.269Z,76.64
2022-11-07T19:36:00.530Z,76.29
2022-11-07T19:38:31.241Z,75.95
2022-11-07T19:41:06.901Z,76.19
2022-11-07T19:43:37.875Z,76.65
2022-11-07T19:46:10.942Z,76.02
2022-11-07T19:48:41.361Z,76.46
2022-11-07T19:51:21.594Z,76.48
2022-11-07T19:54:00.681Z,76.28
2022-11-07T19:56:32.773Z,76.41
2022-11-07T19:59:03.401Z,75.89
2022-11-07T20:01:35.653Z,76.53
2022-11-07T20:04:08.118Z,76.38
2022-11-07T20:06:40.006Z,76.35
2022-11-07T20:09:12.323Z,76.15
2022-11-07T20:11:42.954Z,76.22
2022-11-07T20:14:13.608Z,76.38
2022-11-07T20:16:44.205Z,76.43
2022-11-07T20:19:14.562Z,76.41
2022-11-07T20:21:44.894Z,76.37
2022-11-07T20:24:15.301Z,76.43
2022-11-07T20:26:45.890Z,76.36
2022-11-07T20:29:18.009Z,76.38
2022-11-07T20:31:48.388Z,76.29
2022-11-07T20:34:20.716Z,76.35
2022-11-07T20:36:52.728Z,76.24
2022-11-07T20:39:23.188Z,76.20
2022-11-07T20:41:53.983Z,76.34
2022-11-07T20:44:24.351Z,76.39
2022-11-07T20:46:56.493Z,76.08
2022-11-07T20:49:26.859Z,76.44
2022-11-07T20:51:58.119Z,76.39
2022-11-07T20:54:29.809Z,76.07
2022-11-07T20:57:00.467Z,76.14
2022-11-07T20:59:32.924Z,76.43
2022-11-07T21:02:04.169Z,76.16
2022-11-07T21:04:49.888Z,76.74
2022-11-07T21:07:07.275Z,76.55
2022-11-07T21:09:37.717Z,76.74
2022-11-07T21:12:08.226Z,76.75
2022-11-07T21:14:39.485Z,76.81
2022-11-07T21:17:09.992Z,77.41
2022-11-07T21:19:40.479Z,77.47
2022-11-07T21:22:10.880Z,77.51
2022-11-07T21:24:41.265Z,77.58
2022-11-07T21:27:11.669Z,77.44
2022-11-07T21:29:42.064Z,77.16
2022-11-07T21:32:12.476Z,77.52
2022-11-07T21:34:44.478Z,77.30
2022-11-07T21:37:14.875Z,77.39
2022-11-07T21:39:45.298Z,77.49
2022-11-07T21:42:15.821Z,77.53
2022-11-07T21:44:46.226Z,77.64
2022-11-07T21:47:16.540Z,77.68
2022-11-07T21:49:52.139Z,77.46
2022-11-07T21:52:22.693Z,77.07
2022-11-07T21:54:53.117Z,77.20
2022-11-07T21:57:23.542Z,77.30
2022-11-07T21:59:54.002Z,77.32
2022-11-07T22:02:24.544Z,77.38
2022-11-07T22:04:54.887Z,77.38
2022-11-07T22:07:25.225Z,77.80
2022-11-07T22:09:55.756Z,77.96
2022-11-07T22:12:26.096Z,77.75
2022-11-07T22:14:56.364Z,79.06
2022-11-07T22:17:26.992Z,77.30
2022-11-07T22:19:57.496Z,77.50
2022-11-07T22:22:27.875Z,77.56
2022-11-07T22:24:58.253Z,77.81
2022-11-07T22:27:28.656Z,77.89
2022-11-07T22:29:59.084Z,77.88
2022-11-07T22:32:29.529Z,78.20
2022-11-07T22:35:02.535Z,78.47
2022-11-07T22:37:31.940Z,78.66
2022-11-07T22:40:02.330Z,78.78
2022-11-07T22:42:33.490Z,78.55
2022-11-07T22:45:04.357Z,78.75
2022-11-07T22:47:34.710Z,78.91
2022-11-07T22:50:05.492Z,78.71
2022-11-07T22:52:35.892Z,78.89
2022-11-07T22:55:07.059Z,78.81
2022-11-07T22:57:37.735Z,78.90
2022-11-07T23:00:20.996Z,78.76
2022-11-07T23:02:41.305Z,79.14
2022-11-07T23:05:12.060Z,79.23
2022-11-07T23:07:42.454Z,79.34
2022-11-07T23:10:12.898Z,79.55
2022-11-07T23:12:43.213Z,79.10
2022-11-07T23:15:13.909Z,79.48
2022-11-07T23:17:44.477Z,79.31
2022-11-07T23:20:16.599Z,79.17
2022-11-07T23:22:47.056Z,79.44
2022-11-07T23:25:17.526Z,79.65
2022-11-07T23:27:47.903Z,79.67
2022-11-07T23:30:18.343Z,79.51
2022-11-07T23:32:48.674Z,79.89
2022-11-07T23:35:19.051Z,79.88
2022-11-07T23:37:50.644Z,80.03
2022-11-07T23:40:21.028Z,79.89
2022-11-07T23:42:51.405Z,79.99
2022-11-07T23:45:39.923Z,80.19
2022-11-07T23:48:31.431Z,80.12
2022-11-07T23:51:07.117Z,80.14
2022-11-07T23:53:56.654Z,80.15
2022-11-07T23:56:28.788Z,80.12
2022-11-07T23:59:17.001Z,80.36
